Gothenburg, NE

8:34 PM CDT on July 27, 2016 (GMT -0500)
KNEGOTHE4 | | Change Station
Active Advisory: Severe Thunderstorm Warning Active Notice: Local Storm Report

Elev 2572 ft 40.92 °N, 100.17 °W | Updated 4 minutes ago

Clear
Clear
80.6 °F
Feels Like 85 °F
N
3.0
Wind Variable Wind from East
Gusts 3.0 mph

Today
High -- | Low -- °F
--% Chance of Precip.
Yesterday
High -- | Low -- °F
Precip. -- in
Pressure 30.05 in
Visibility 10.0 miles
Clouds Clear
Heat Index 85 °F
Dew Point 72 °F
Humidity 74%
Rainfall 0.57 in
Snow Depth Not available.
6:32 AM 9:01 PM
Last Quarter, 37% visible
METAR KLXN 280115Z AUTO 10004KT 10SM CLR 26/21 A3005 RMK AO2 LTG DSNT NE T02640209
Pressure 30.05 in
Visibility 10.0 miles
Clouds Clear
Heat Index 85 °F
Dew Point 72 °F
Humidity 74%
Rainfall 0.57 in
Snow Depth Not available.
6:32 AM 9:01 PM
Last Quarter, 37% visible
METAR KLXN 280115Z AUTO 10004KT 10SM CLR 26/21 A3005 RMK AO2 LTG DSNT NE T02640209

10-Day Weather Forecast

Almanac

Astronomy

Jul. 27, 2016 Rise Set
Actual Time
Civil Twilight
Nautical Twilight
Astronomical Twilight
Moon
Length of Visible Light
Length of Day
Tomorrow will be .
, % of the Moon is Illuminated

Today's Extremes

State Highs State Lows

Community

WunderPhotos

Upload Photos

1,927,998 photos uploaded!

WunderBlog® & News

Nearby

Air Quality

  Air Quality AQ Index Pollutant
Not available.

Snow Depth

Station Depth Elevation

Earthquake Activity

City Distance Mag. Time & Date
Minimum magnitude displayed is 2.5.

Coastal Water Temperatures

Place Temperature

Stations

Nearby Weather Stations

Station Location Temp. Windchill Dew Point Humidity Wind Precip. Elev Updated Type
                   

Watches & Warnings

Severe Thunderstorm Warning
Issued: 8:11 PM CDT Jul. 27, 2016 – National Weather Service

The National Weather Service in Hastings has issued a

* Severe Thunderstorm Warning for...
northeastern Dawson County in south central Nebraska...
northwestern Buffalo County in south central Nebraska...

* until 845 PM CDT

* at 811 PM CDT... a severe thunderstorm was located 7 miles northeast
of Sumner... or 24 miles northeast of Lexington... moving south at 25
mph.

Hazard... 60 mph wind gusts and quarter size hail.

Source... radar indicated.

Impact... hail damage to vehicles is expected. Expect wind damage
           to roofs... siding... and trees.

* Locations impacted include...
Overton... Amherst... Sumner and Miller.

Precautionary/preparedness actions...

For your protection move to an interior room on the lowest floor of a
building.


Lat... Lon 4105 9929 4079 9915 4074 9955 4105 9957
time... Mot... loc 0111z 346deg 22kt 4104 9942

Hail... 1.00in
wind... 60mph


Rossi